sensor_id;sensor_type;location;lat;lon;timestamp;P1;durP1;ratioP1;P2;durP2;ratioP2
16892;SDS011;8563;52.242;9.098;2022-11-06T00:00:57;3.97;;;2.50;;
16892;SDS011;8563;52.242;9.098;2022-11-06T00:03:32;4.17;;;2.30;;
16892;SDS011;8563;52.242;9.098;2022-11-06T00:06:05;3.87;;;2.73;;
16892;SDS011;8563;52.242;9.098;2022-11-06T00:08:55;5.93;;;2.50;;
16892;SDS011;8563;52.242;9.098;2022-11-06T00:11:28;6.07;;;3.03;;
16892;SDS011;8563;52.242;9.098;2022-11-06T00:14:00;4.27;;;2.33;;
16892;SDS011;8563;52.242;9.098;2022-11-06T00:16:35;3.10;;;2.40;;
16892;SDS011;8563;52.242;9.098;2022-11-06T00:19:09;3.90;;;2.50;;
16892;SDS011;8563;52.242;9.098;2022-11-06T00:21:42;6.13;;;2.57;;
16892;SDS011;8563;52.242;9.098;2022-11-06T00:24:15;4.33;;;2.47;;
16892;SDS011;8563;52.242;9.098;2022-11-06T00:26:47;4.43;;;2.50;;
16892;SDS011;8563;52.242;9.098;2022-11-06T00:29:20;7.67;;;2.40;;
16892;SDS011;8563;52.242;9.098;2022-11-06T00:31:53;5.63;;;2.60;;
16892;SDS011;8563;52.242;9.098;2022-11-06T00:34:27;3.83;;;2.30;;
16892;SDS011;8563;52.242;9.098;2022-11-06T00:36:59;3.03;;;2.23;;
16892;SDS011;8563;52.242;9.098;2022-11-06T00:39:32;5.77;;;2.30;;
16892;SDS011;8563;52.242;9.098;2022-11-06T00:42:05;2.90;;;2.40;;
16892;SDS011;8563;52.242;9.098;2022-11-06T00:44:37;4.33;;;2.67;;
16892;SDS011;8563;52.242;9.098;2022-11-06T00:47:10;4.50;;;2.33;;
16892;SDS011;8563;52.242;9.098;2022-11-06T00:49:44;5.10;;;2.40;;
16892;SDS011;8563;52.242;9.098;2022-11-06T00:52:16;4.73;;;2.70;;
16892;SDS011;8563;52.242;9.098;2022-11-06T00:54:49;4.80;;;2.50;;
16892;SDS011;8563;52.242;9.098;2022-11-06T00:57:21;7.27;;;2.77;;
16892;SDS011;8563;52.242;9.098;2022-11-06T00:59:54;4.97;;;2.23;;
16892;SDS011;8563;52.242;9.098;2022-11-06T01:02:26;5.33;;;2.70;;
16892;SDS011;8563;52.242;9.098;2022-11-06T01:05:01;3.67;;;1.90;;
16892;SDS011;8563;52.242;9.098;2022-11-06T01:07:33;4.53;;;2.47;;
16892;SDS011;8563;52.242;9.098;2022-11-06T01:10:16;3.23;;;2.23;;
16892;SDS011;8563;52.242;9.098;2022-11-06T01:12:51;5.73;;;2.83;;
16892;SDS011;8563;52.242;9.098;2022-11-06T01:15:24;6.77;;;2.83;;
16892;SDS011;8563;52.242;9.098;2022-11-06T01:17:57;5.37;;;2.37;;
16892;SDS011;8563;52.242;9.098;2022-11-06T01:20:31;4.27;;;2.30;;
16892;SDS011;8563;52.242;9.098;2022-11-06T01:23:03;6.87;;;2.47;;
16892;SDS011;8563;52.242;9.098;2022-11-06T01:25:36;4.33;;;2.37;;
16892;SDS011;8563;52.242;9.098;2022-11-06T01:28:08;6.63;;;2.80;;
16892;SDS011;8563;52.242;9.098;2022-11-06T01:30:41;3.20;;;2.40;;
16892;SDS011;8563;52.242;9.098;2022-11-06T01:33:13;7.30;;;2.70;;
16892;SDS011;8563;52.242;9.098;2022-11-06T01:35:48;4.67;;;2.40;;
16892;SDS011;8563;52.242;9.098;2022-11-06T01:38:20;4.77;;;2.67;;
16892;SDS011;8563;52.242;9.098;2022-11-06T01:40:53;4.30;;;2.27;;
16892;SDS011;8563;52.242;9.098;2022-11-06T01:43:42;5.33;;;2.57;;
16892;SDS011;8563;52.242;9.098;2022-11-06T01:46:15;3.33;;;2.70;;
16892;SDS011;8563;52.242;9.098;2022-11-06T01:48:49;9.70;;;2.90;;
16892;SDS011;8563;52.242;9.098;2022-11-06T01:51:25;5.13;;;2.93;;
16892;SDS011;8563;52.242;9.098;2022-11-06T01:53:58;3.63;;;2.63;;
16892;SDS011;8563;52.242;9.098;2022-11-06T01:56:31;4.13;;;2.57;;
16892;SDS011;8563;52.242;9.098;2022-11-06T01:59:05;4.33;;;2.77;;
16892;SDS011;8563;52.242;9.098;2022-11-06T02:01:38;5.07;;;3.30;;
16892;SDS011;8563;52.242;9.098;2022-11-06T02:04:11;3.27;;;2.57;;
16892;SDS011;8563;52.242;9.098;2022-11-06T02:06:46;4.83;;;3.30;;
16892;SDS011;8563;52.242;9.098;2022-11-06T02:09:19;5.20;;;2.60;;
16892;SDS011;8563;52.242;9.098;2022-11-06T02:11:53;3.90;;;2.80;;
16892;SDS011;8563;52.242;9.098;2022-11-06T02:14:30;5.20;;;2.67;;
16892;SDS011;8563;52.242;9.098;2022-11-06T02:17:06;5.40;;;3.13;;
16892;SDS011;8563;52.242;9.098;2022-11-06T02:19:48;3.87;;;2.90;;
16892;SDS011;8563;52.242;9.098;2022-11-06T02:22:32;6.70;;;3.20;;
16892;SDS011;8563;52.242;9.098;2022-11-06T02:25:12;5.17;;;3.10;;
16892;SDS011;8563;52.242;9.098;2022-11-06T02:27:47;6.93;;;3.30;;
16892;SDS011;8563;52.242;9.098;2022-11-06T02:30:22;4.53;;;2.97;;
16892;SDS011;8563;52.242;9.098;2022-11-06T02:32:55;5.63;;;3.20;;
16892;SDS011;8563;52.242;9.098;2022-11-06T02:35:30;5.40;;;2.90;;
16892;SDS011;8563;52.242;9.098;2022-11-06T02:38:05;5.67;;;3.23;;
16892;SDS011;8563;52.242;9.098;2022-11-06T02:40:39;4.53;;;3.33;;
16892;SDS011;8563;52.242;9.098;2022-11-06T02:43:14;4.70;;;3.27;;
16892;SDS011;8563;52.242;9.098;2022-11-06T02:45:49;5.03;;;3.40;;
16892;SDS011;8563;52.242;9.098;2022-11-06T02:48:24;6.07;;;3.43;;
16892;SDS011;8563;52.242;9.098;2022-11-06T02:50:59;6.27;;;3.57;;
16892;SDS011;8563;52.242;9.098;2022-11-06T02:53:33;8.20;;;4.13;;
16892;SDS011;8563;52.242;9.098;2022-11-06T02:56:08;6.97;;;4.00;;
16892;SDS011;8563;52.242;9.098;2022-11-06T02:58:43;4.77;;;3.33;;
16892;SDS011;8563;52.242;9.098;2022-11-06T03:01:19;3.83;;;3.13;;
16892;SDS011;8563;52.242;9.098;2022-11-06T03:03:53;8.93;;;4.33;;
16892;SDS011;8563;52.242;9.098;2022-11-06T03:06:29;6.67;;;4.13;;
16892;SDS011;8563;52.242;9.098;2022-11-06T03:09:04;10.40;;;4.90;;
16892;SDS011;8563;52.242;9.098;2022-11-06T03:11:38;5.80;;;3.93;;
16892;SDS011;8563;52.242;9.098;2022-11-06T03:14:13;5.43;;;3.87;;
16892;SDS011;8563;52.242;9.098;2022-11-06T03:16:50;7.87;;;4.20;;
16892;SDS011;8563;52.242;9.098;2022-11-06T03:19:26;8.07;;;4.10;;
16892;SDS011;8563;52.242;9.098;2022-11-06T03:22:01;5.53;;;3.80;;
16892;SDS011;8563;52.242;9.098;2022-11-06T03:24:37;6.03;;;3.53;;
16892;SDS011;8563;52.242;9.098;2022-11-06T03:27:12;5.33;;;3.90;;
16892;SDS011;8563;52.242;9.098;2022-11-06T03:29:48;5.27;;;3.77;;
16892;SDS011;8563;52.242;9.098;2022-11-06T03:32:25;7.43;;;4.27;;
16892;SDS011;8563;52.242;9.098;2022-11-06T03:34:59;7.47;;;4.30;;
16892;SDS011;8563;52.242;9.098;2022-11-06T03:37:35;4.73;;;3.87;;
16892;SDS011;8563;52.242;9.098;2022-11-06T03:40:10;9.10;;;4.30;;
16892;SDS011;8563;52.242;9.098;2022-11-06T03:42:44;4.67;;;4.03;;
16892;SDS011;8563;52.242;9.098;2022-11-06T03:45:20;5.27;;;4.20;;
16892;SDS011;8563;52.242;9.098;2022-11-06T03:47:54;6.10;;;4.37;;
16892;SDS011;8563;52.242;9.098;2022-11-06T03:50:29;6.03;;;4.27;;
16892;SDS011;8563;52.242;9.098;2022-11-06T03:53:04;5.03;;;3.67;;
16892;SDS011;8563;52.242;9.098;2022-11-06T03:55:40;6.47;;;3.80;;
16892;SDS011;8563;52.242;9.098;2022-11-06T03:58:15;6.60;;;4.33;;
16892;SDS011;8563;52.242;9.098;2022-11-06T04:00:50;6.50;;;4.23;;
16892;SDS011;8563;52.242;9.098;2022-11-06T04:03:25;5.47;;;4.13;;
16892;SDS011;8563;52.242;9.098;2022-11-06T04:06:01;5.40;;;4.10;;
16892;SDS011;8563;52.242;9.098;2022-11-06T04:08:34;6.10;;;4.13;;
16892;SDS011;8563;52.242;9.098;2022-11-06T04:11:40;6.27;;;4.43;;
16892;SDS011;8563;52.242;9.098;2022-11-06T04:14:31;7.17;;;4.83;;
16892;SDS011;8563;52.242;9.098;2022-11-06T04:17:08;5.83;;;4.37;;
16892;SDS011;8563;52.242;9.098;2022-11-06T04:19:43;6.37;;;4.10;;
16892;SDS011;8563;52.242;9.098;2022-11-06T04:22:20;5.93;;;4.00;;
16892;SDS011;8563;52.242;9.098;2022-11-06T04:24:57;5.80;;;3.77;;
16892;SDS011;8563;52.242;9.098;2022-11-06T04:27:54;7.10;;;4.20;;
16892;SDS011;8563;52.242;9.098;2022-11-06T04:30:31;6.20;;;4.03;;
16892;SDS011;8563;52.242;9.098;2022-11-06T04:33:08;4.43;;;3.80;;
16892;SDS011;8563;52.242;9.098;2022-11-06T04:35:47;5.13;;;3.50;;
16892;SDS011;8563;52.242;9.098;2022-11-06T04:38:24;6.20;;;4.20;;
16892;SDS011;8563;52.242;9.098;2022-11-06T04:41:01;4.87;;;3.60;;
16892;SDS011;8563;52.242;9.098;2022-11-06T04:43:37;8.17;;;4.00;;
16892;SDS011;8563;52.242;9.098;2022-11-06T04:46:13;5.37;;;4.03;;
16892;SDS011;8563;52.242;9.098;2022-11-06T04:48:49;4.77;;;3.60;;
16892;SDS011;8563;52.242;9.098;2022-11-06T04:51:23;4.53;;;3.60;;
16892;SDS011;8563;52.242;9.098;2022-11-06T04:53:57;5.33;;;3.37;;
16892;SDS011;8563;52.242;9.098;2022-11-06T04:56:30;4.63;;;3.37;;
16892;SDS011;8563;52.242;9.098;2022-11-06T04:59:03;6.63;;;3.87;;
16892;SDS011;8563;52.242;9.098;2022-11-06T05:01:36;5.23;;;3.70;;
16892;SDS011;8563;52.242;9.098;2022-11-06T05:04:11;6.80;;;3.60;;
16892;SDS011;8563;52.242;9.098;2022-11-06T05:06:43;6.30;;;3.00;;
16892;SDS011;8563;52.242;9.098;2022-11-06T05:09:16;6.43;;;3.53;;
16892;SDS011;8563;52.242;9.098;2022-11-06T05:11:49;5.93;;;3.20;;
16892;SDS011;8563;52.242;9.098;2022-11-06T05:14:21;5.63;;;3.27;;
16892;SDS011;8563;52.242;9.098;2022-11-06T05:16:54;5.40;;;3.10;;
16892;SDS011;8563;52.242;9.098;2022-11-06T05:19:28;5.33;;;3.40;;
16892;SDS011;8563;52.242;9.098;2022-11-06T05:22:01;5.90;;;2.80;;
16892;SDS011;8563;52.242;9.098;2022-11-06T05:24:51;5.97;;;3.30;;
16892;SDS011;8563;52.242;9.098;2022-11-06T05:27:23;5.33;;;3.30;;
16892;SDS011;8563;52.242;9.098;2022-11-06T05:29:56;5.23;;;3.17;;
16892;SDS011;8563;52.242;9.098;2022-11-06T05:32:29;5.13;;;2.90;;
16892;SDS011;8563;52.242;9.098;2022-11-06T05:35:03;4.50;;;2.90;;
16892;SDS011;8563;52.242;9.098;2022-11-06T05:37:36;6.37;;;3.23;;
16892;SDS011;8563;52.242;9.098;2022-11-06T05:40:09;5.13;;;2.80;;
16892;SDS011;8563;52.242;9.098;2022-11-06T05:42:42;5.03;;;2.63;;
16892;SDS011;8563;52.242;9.098;2022-11-06T05:45:15;5.20;;;2.83;;
16892;SDS011;8563;52.242;9.098;2022-11-06T05:47:47;3.80;;;2.90;;
16892;SDS011;8563;52.242;9.098;2022-11-06T05:50:22;3.60;;;2.10;;
16892;SDS011;8563;52.242;9.098;2022-11-06T05:52:54;6.03;;;2.00;;
16892;SDS011;8563;52.242;9.098;2022-11-06T05:55:27;5.33;;;2.33;;
16892;SDS011;8563;52.242;9.098;2022-11-06T05:57:59;4.63;;;2.90;;
16892;SDS011;8563;52.242;9.098;2022-11-06T06:00:32;4.47;;;2.30;;
16892;SDS011;8563;52.242;9.098;2022-11-06T06:03:04;6.77;;;2.50;;
16892;SDS011;8563;52.242;9.098;2022-11-06T06:05:38;4.80;;;2.30;;
16892;SDS011;8563;52.242;9.098;2022-11-06T06:08:11;5.57;;;2.33;;
16892;SDS011;8563;52.242;9.098;2022-11-06T06:10:44;5.87;;;2.20;;
16892;SDS011;8563;52.242;9.098;2022-11-06T06:13:16;7.97;;;2.67;;
16892;SDS011;8563;52.242;9.098;2022-11-06T06:15:49;5.23;;;2.37;;
16892;SDS011;8563;52.242;9.098;2022-11-06T06:18:22;4.80;;;2.60;;
16892;SDS011;8563;52.242;9.098;2022-11-06T06:20:57;4.47;;;2.30;;
16892;SDS011;8563;52.242;9.098;2022-11-06T06:23:30;2.83;;;2.03;;
16892;SDS011;8563;52.242;9.098;2022-11-06T06:26:02;3.83;;;2.13;;
16892;SDS011;8563;52.242;9.098;2022-11-06T06:28:35;3.67;;;2.37;;
16892;SDS011;8563;52.242;9.098;2022-11-06T06:31:08;4.23;;;2.30;;
16892;SDS011;8563;52.242;9.098;2022-11-06T06:33:41;4.67;;;2.33;;
16892;SDS011;8563;52.242;9.098;2022-11-06T06:36:16;5.87;;;2.57;;
16892;SDS011;8563;52.242;9.098;2022-11-06T06:38:48;6.10;;;2.70;;
16892;SDS011;8563;52.242;9.098;2022-11-06T06:41:21;3.13;;;2.30;;
16892;SDS011;8563;52.242;9.098;2022-11-06T06:43:53;3.23;;;1.80;;
16892;SDS011;8563;52.242;9.098;2022-11-06T06:46:26;5.10;;;2.37;;
16892;SDS011;8563;52.242;9.098;2022-11-06T06:48:59;3.27;;;2.10;;
16892;SDS011;8563;52.242;9.098;2022-11-06T06:51:32;5.40;;;2.30;;
16892;SDS011;8563;52.242;9.098;2022-11-06T06:54:05;6.33;;;2.70;;
16892;SDS011;8563;52.242;9.098;2022-11-06T06:56:38;3.30;;;2.27;;
16892;SDS011;8563;52.242;9.098;2022-11-06T06:59:11;5.93;;;2.23;;
16892;SDS011;8563;52.242;9.098;2022-11-06T07:01:43;5.03;;;2.47;;
16892;SDS011;8563;52.242;9.098;2022-11-06T07:04:16;5.53;;;2.60;;
16892;SDS011;8563;52.242;9.098;2022-11-06T07:06:50;4.63;;;2.27;;
16892;SDS011;8563;52.242;9.098;2022-11-06T07:09:24;4.63;;;2.63;;
16892;SDS011;8563;52.242;9.098;2022-11-06T07:11:56;5.30;;;2.70;;
16892;SDS011;8563;52.242;9.098;2022-11-06T07:14:29;5.70;;;2.73;;
16892;SDS011;8563;52.242;9.098;2022-11-06T07:17:02;5.40;;;2.53;;
16892;SDS011;8563;52.242;9.098;2022-11-06T07:19:34;3.93;;;2.30;;
16892;SDS011;8563;52.242;9.098;2022-11-06T07:22:08;2.80;;;2.10;;
16892;SDS011;8563;52.242;9.098;2022-11-06T07:24:41;4.63;;;2.30;;
16892;SDS011;8563;52.242;9.098;2022-11-06T07:27:13;5.80;;;2.43;;
16892;SDS011;8563;52.242;9.098;2022-11-06T07:29:46;4.33;;;3.03;;
16892;SDS011;8563;52.242;9.098;2022-11-06T07:32:18;6.67;;;3.30;;
16892;SDS011;8563;52.242;9.098;2022-11-06T07:34:51;5.83;;;2.67;;
16892;SDS011;8563;52.242;9.098;2022-11-06T07:37:25;5.53;;;2.90;;
16892;SDS011;8563;52.242;9.098;2022-11-06T07:39:58;4.60;;;2.63;;
16892;SDS011;8563;52.242;9.098;2022-11-06T07:42:31;6.73;;;2.97;;
16892;SDS011;8563;52.242;9.098;2022-11-06T07:45:07;5.13;;;2.87;;
16892;SDS011;8563;52.242;9.098;2022-11-06T07:47:40;7.07;;;3.00;;
16892;SDS011;8563;52.242;9.098;2022-11-06T07:50:13;5.37;;;3.33;;
16892;SDS011;8563;52.242;9.098;2022-11-06T07:52:47;4.87;;;2.93;;
16892;SDS011;8563;52.242;9.098;2022-11-06T07:55:20;5.10;;;2.90;;
16892;SDS011;8563;52.242;9.098;2022-11-06T07:57:53;5.27;;;3.10;;
16892;SDS011;8563;52.242;9.098;2022-11-06T08:00:26;4.77;;;3.67;;
16892;SDS011;8563;52.242;9.098;2022-11-06T08:02:59;4.00;;;2.90;;
16892;SDS011;8563;52.242;9.098;2022-11-06T08:05:31;6.27;;;3.10;;
16892;SDS011;8563;52.242;9.098;2022-11-06T08:08:06;5.87;;;3.57;;
16892;SDS011;8563;52.242;9.098;2022-11-06T08:10:38;7.77;;;3.07;;
16892;SDS011;8563;52.242;9.098;2022-11-06T08:13:13;4.77;;;3.33;;
16892;SDS011;8563;52.242;9.098;2022-11-06T08:15:46;4.03;;;3.20;;
16892;SDS011;8563;52.242;9.098;2022-11-06T08:18:19;5.43;;;3.10;;
16892;SDS011;8563;52.242;9.098;2022-11-06T08:20:52;7.20;;;2.97;;
16892;SDS011;8563;52.242;9.098;2022-11-06T08:23:26;5.47;;;3.27;;
16892;SDS011;8563;52.242;9.098;2022-11-06T08:25:59;8.00;;;3.40;;
16892;SDS011;8563;52.242;9.098;2022-11-06T08:28:32;6.50;;;3.30;;
16892;SDS011;8563;52.242;9.098;2022-11-06T08:31:06;6.97;;;4.23;;
16892;SDS011;8563;52.242;9.098;2022-11-06T08:33:38;5.80;;;3.33;;
16892;SDS011;8563;52.242;9.098;2022-11-06T08:36:11;5.57;;;3.50;;
16892;SDS011;8563;52.242;9.098;2022-11-06T08:38:47;5.20;;;3.23;;
16892;SDS011;8563;52.242;9.098;2022-11-06T08:41:19;4.90;;;3.43;;
16892;SDS011;8563;52.242;9.098;2022-11-06T08:43:52;4.53;;;3.23;;
16892;SDS011;8563;52.242;9.098;2022-11-06T08:46:24;5.90;;;3.10;;
16892;SDS011;8563;52.242;9.098;2022-11-06T08:48:57;4.43;;;3.00;;
16892;SDS011;8563;52.242;9.098;2022-11-06T08:51:30;7.47;;;3.33;;
16892;SDS011;8563;52.242;9.098;2022-11-06T08:54:04;5.93;;;2.97;;
16892;SDS011;8563;52.242;9.098;2022-11-06T08:56:37;5.03;;;2.97;;
16892;SDS011;8563;52.242;9.098;2022-11-06T08:59:09;4.40;;;2.83;;
16892;SDS011;8563;52.242;9.098;2022-11-06T09:01:42;6.17;;;3.00;;
16892;SDS011;8563;52.242;9.098;2022-11-06T09:04:15;4.30;;;2.80;;
16892;SDS011;8563;52.242;9.098;2022-11-06T09:06:47;4.97;;;2.47;;
16892;SDS011;8563;52.242;9.098;2022-11-06T09:09:22;9.30;;;3.00;;
16892;SDS011;8563;52.242;9.098;2022-11-06T09:12:01;4.00;;;2.83;;
16892;SDS011;8563;52.242;9.098;2022-11-06T09:14:33;4.90;;;2.80;;
16892;SDS011;8563;52.242;9.098;2022-11-06T09:17:06;4.57;;;3.10;;
16892;SDS011;8563;52.242;9.098;2022-11-06T09:19:38;5.47;;;2.50;;
16892;SDS011;8563;52.242;9.098;2022-11-06T09:22:11;4.60;;;2.57;;
16892;SDS011;8563;52.242;9.098;2022-11-06T09:24:45;3.70;;;2.33;;
16892;SDS011;8563;52.242;9.098;2022-11-06T09:27:20;4.93;;;2.40;;
16892;SDS011;8563;52.242;9.098;2022-11-06T09:29:53;3.27;;;2.47;;
16892;SDS011;8563;52.242;9.098;2022-11-06T09:32:26;3.70;;;2.17;;
16892;SDS011;8563;52.242;9.098;2022-11-06T09:34:58;3.93;;;1.93;;
16892;SDS011;8563;52.242;9.098;2022-11-06T09:37:31;2.90;;;2.30;;
16892;SDS011;8563;52.242;9.098;2022-11-06T09:40:06;6.47;;;2.47;;
16892;SDS011;8563;52.242;9.098;2022-11-06T09:42:41;4.97;;;2.47;;
16892;SDS011;8563;52.242;9.098;2022-11-06T09:45:16;7.37;;;2.43;;
16892;SDS011;8563;52.242;9.098;2022-11-06T09:47:53;3.00;;;2.27;;
16892;SDS011;8563;52.242;9.098;2022-11-06T09:50:29;2.60;;;2.07;;
16892;SDS011;8563;52.242;9.098;2022-11-06T09:53:04;4.70;;;2.00;;
16892;SDS011;8563;52.242;9.098;2022-11-06T09:55:40;4.63;;;2.47;;
16892;SDS011;8563;52.242;9.098;2022-11-06T09:58:15;4.00;;;2.30;;
16892;SDS011;8563;52.242;9.098;2022-11-06T10:00:49;3.37;;;2.37;;
16892;SDS011;8563;52.242;9.098;2022-11-06T10:03:24;3.43;;;1.87;;
16892;SDS011;8563;52.242;9.098;2022-11-06T10:05:59;16.73;;;2.47;;
16892;SDS011;8563;52.242;9.098;2022-11-06T10:08:31;5.67;;;2.10;;
16892;SDS011;8563;52.242;9.098;2022-11-06T10:11:06;3.87;;;1.93;;
16892;SDS011;8563;52.242;9.098;2022-11-06T10:13:46;3.47;;;1.90;;
16892;SDS011;8563;52.242;9.098;2022-11-06T10:16:24;3.93;;;2.20;;
16892;SDS011;8563;52.242;9.098;2022-11-06T10:19:04;3.97;;;1.83;;
16892;SDS011;8563;52.242;9.098;2022-11-06T10:21:42;2.70;;;1.70;;
16892;SDS011;8563;52.242;9.098;2022-11-06T10:24:20;2.93;;;2.00;;
16892;SDS011;8563;52.242;9.098;2022-11-06T10:26:54;4.40;;;1.90;;
16892;SDS011;8563;52.242;9.098;2022-11-06T10:29:43;3.43;;;2.00;;
16892;SDS011;8563;52.242;9.098;2022-11-06T10:32:28;3.80;;;2.30;;
16892;SDS011;8563;52.242;9.098;2022-11-06T10:35:04;3.33;;;2.00;;
16892;SDS011;8563;52.242;9.098;2022-11-06T10:37:53;5.97;;;2.30;;
16892;SDS011;8563;52.242;9.098;2022-11-06T10:40:31;2.90;;;1.80;;
16892;SDS011;8563;52.242;9.098;2022-11-06T10:43:11;5.53;;;2.50;;
16892;SDS011;8563;52.242;9.098;2022-11-06T10:45:46;5.10;;;2.10;;
16892;SDS011;8563;52.242;9.098;2022-11-06T10:48:20;3.83;;;1.83;;
16892;SDS011;8563;52.242;9.098;2022-11-06T10:50:57;5.20;;;2.10;;
16892;SDS011;8563;52.242;9.098;2022-11-06T10:53:33;3.43;;;1.97;;
16892;SDS011;8563;52.242;9.098;2022-11-06T10:56:16;3.93;;;2.17;;
16892;SDS011;8563;52.242;9.098;2022-11-06T10:58:52;6.10;;;1.90;;
16892;SDS011;8563;52.242;9.098;2022-11-06T11:01:25;2.20;;;1.87;;
16892;SDS011;8563;52.242;9.098;2022-11-06T11:03:58;3.00;;;2.00;;
16892;SDS011;8563;52.242;9.098;2022-11-06T11:06:30;3.23;;;1.90;;
16892;SDS011;8563;52.242;9.098;2022-11-06T11:09:03;3.63;;;1.93;;
16892;SDS011;8563;52.242;9.098;2022-11-06T11:11:57;4.10;;;1.80;;
16892;SDS011;8563;52.242;9.098;2022-11-06T11:14:30;3.23;;;1.77;;
16892;SDS011;8563;52.242;9.098;2022-11-06T11:17:04;4.33;;;1.80;;
16892;SDS011;8563;52.242;9.098;2022-11-06T11:19:39;3.00;;;1.93;;
16892;SDS011;8563;52.242;9.098;2022-11-06T11:22:16;3.47;;;1.90;;
16892;SDS011;8563;52.242;9.098;2022-11-06T11:24:59;5.17;;;1.97;;
16892;SDS011;8563;52.242;9.098;2022-11-06T11:27:34;6.27;;;1.80;;
16892;SDS011;8563;52.242;9.098;2022-11-06T11:30:17;3.10;;;2.00;;
16892;SDS011;8563;52.242;9.098;2022-11-06T11:32:52;3.80;;;2.10;;
16892;SDS011;8563;52.242;9.098;2022-11-06T11:35:25;4.70;;;1.90;;
16892;SDS011;8563;52.242;9.098;2022-11-06T11:38:03;3.63;;;2.03;;
16892;SDS011;8563;52.242;9.098;2022-11-06T11:40:37;4.53;;;2.10;;
16892;SDS011;8563;52.242;9.098;2022-11-06T11:43:22;2.80;;;1.70;;
16892;SDS011;8563;52.242;9.098;2022-11-06T11:48:47;4.37;;;1.90;;
16892;SDS011;8563;52.242;9.098;2022-11-06T11:51:23;4.30;;;2.10;;
16892;SDS011;8563;52.242;9.098;2022-11-06T11:53:58;3.67;;;1.83;;
16892;SDS011;8563;52.242;9.098;2022-11-06T11:56:32;4.07;;;2.03;;
16892;SDS011;8563;52.242;9.098;2022-11-06T11:59:11;3.77;;;1.80;;
16892;SDS011;8563;52.242;9.098;2022-11-06T12:01:46;3.97;;;2.30;;
16892;SDS011;8563;52.242;9.098;2022-11-06T12:04:20;3.03;;;1.97;;
16892;SDS011;8563;52.242;9.098;2022-11-06T12:06:57;5.83;;;2.27;;
16892;SDS011;8563;52.242;9.098;2022-11-06T12:09:32;3.97;;;1.93;;
16892;SDS011;8563;52.242;9.098;2022-11-06T12:12:16;3.83;;;1.90;;
16892;SDS011;8563;52.242;9.098;2022-11-06T12:17:41;4.03;;;1.97;;
16892;SDS011;8563;52.242;9.098;2022-11-06T12:20:16;2.97;;;1.90;;
16892;SDS011;8563;52.242;9.098;2022-11-06T12:22:51;4.33;;;1.90;;
16892;SDS011;8563;52.242;9.098;2022-11-06T12:25:26;5.27;;;1.90;;
16892;SDS011;8563;52.242;9.098;2022-11-06T12:28:02;4.57;;;2.10;;
16892;SDS011;8563;52.242;9.098;2022-11-06T12:30:37;3.80;;;2.10;;
16892;SDS011;8563;52.242;9.098;2022-11-06T12:33:15;3.93;;;2.00;;
16892;SDS011;8563;52.242;9.098;2022-11-06T12:35:49;2.83;;;1.83;;
16892;SDS011;8563;52.242;9.098;2022-11-06T12:38:26;4.20;;;2.13;;
16892;SDS011;8563;52.242;9.098;2022-11-06T12:41:02;3.53;;;1.90;;
16892;SDS011;8563;52.242;9.098;2022-11-06T12:43:36;3.17;;;1.80;;
16892;SDS011;8563;52.242;9.098;2022-11-06T12:46:18;2.77;;;1.80;;
16892;SDS011;8563;52.242;9.098;2022-11-06T12:51:45;4.20;;;2.00;;
16892;SDS011;8563;52.242;9.098;2022-11-06T12:54:25;2.27;;;1.73;;
16892;SDS011;8563;52.242;9.098;2022-11-06T12:57:02;4.33;;;1.80;;
16892;SDS011;8563;52.242;9.098;2022-11-06T12:59:41;3.00;;;1.70;;
16892;SDS011;8563;52.242;9.098;2022-11-06T13:02:23;4.80;;;1.90;;
16892;SDS011;8563;52.242;9.098;2022-11-06T13:04:58;6.03;;;2.17;;
16892;SDS011;8563;52.242;9.098;2022-11-06T13:07:44;2.60;;;1.83;;
16892;SDS011;8563;52.242;9.098;2022-11-06T13:10:24;4.37;;;2.20;;
16892;SDS011;8563;52.242;9.098;2022-11-06T13:13:02;3.30;;;2.10;;
16892;SDS011;8563;52.242;9.098;2022-11-06T13:15:44;3.03;;;2.07;;
16892;SDS011;8563;52.242;9.098;2022-11-06T13:18:19;4.00;;;2.33;;
16892;SDS011;8563;52.242;9.098;2022-11-06T13:20:54;5.50;;;1.97;;
16892;SDS011;8563;52.242;9.098;2022-11-06T13:23:31;4.07;;;2.07;;
16892;SDS011;8563;52.242;9.098;2022-11-06T13:26:06;5.03;;;2.10;;
16892;SDS011;8563;52.242;9.098;2022-11-06T13:28:41;3.87;;;2.20;;
16892;SDS011;8563;52.242;9.098;2022-11-06T13:31:17;3.97;;;2.50;;
16892;SDS011;8563;52.242;9.098;2022-11-06T13:33:51;3.03;;;1.87;;
16892;SDS011;8563;52.242;9.098;2022-11-06T13:36:25;3.93;;;1.90;;
16892;SDS011;8563;52.242;9.098;2022-11-06T13:39:02;3.70;;;2.07;;
16892;SDS011;8563;52.242;9.098;2022-11-06T13:41:36;2.93;;;1.87;;
16892;SDS011;8563;52.242;9.098;2022-11-06T13:44:09;4.80;;;2.00;;
16892;SDS011;8563;52.242;9.098;2022-11-06T13:46:47;4.33;;;1.97;;
16892;SDS011;8563;52.242;9.098;2022-11-06T13:49:24;3.50;;;1.93;;
16892;SDS011;8563;52.242;9.098;2022-11-06T13:52:00;2.60;;;1.83;;
16892;SDS011;8563;52.242;9.098;2022-11-06T13:54:37;6.87;;;2.10;;
16892;SDS011;8563;52.242;9.098;2022-11-06T14:00:12;2.60;;;1.57;;
16892;SDS011;8563;52.242;9.098;2022-11-06T14:03:06;4.57;;;1.57;;
16892;SDS011;8563;52.242;9.098;2022-11-06T14:05:42;3.63;;;1.73;;
16892;SDS011;8563;52.242;9.098;2022-11-06T14:08:17;2.83;;;1.73;;
16892;SDS011;8563;52.242;9.098;2022-11-06T14:10:53;3.57;;;1.60;;
16892;SDS011;8563;52.242;9.098;2022-11-06T14:13:27;2.37;;;1.57;;
16892;SDS011;8563;52.242;9.098;2022-11-06T14:16:02;6.20;;;1.70;;
16892;SDS011;8563;52.242;9.098;2022-11-06T14:18:36;4.07;;;1.73;;
16892;SDS011;8563;52.242;9.098;2022-11-06T14:24:06;5.37;;;1.50;;
16892;SDS011;8563;52.242;9.098;2022-11-06T14:26:47;5.43;;;1.90;;
16892;SDS011;8563;52.242;9.098;2022-11-06T14:32:36;2.10;;;1.50;;
16892;SDS011;8563;52.242;9.098;2022-11-06T14:38:14;3.30;;;1.57;;
16892;SDS011;8563;52.242;9.098;2022-11-06T14:40:48;3.53;;;1.30;;
16892;SDS011;8563;52.242;9.098;2022-11-06T14:43:23;5.13;;;1.53;;
16892;SDS011;8563;52.242;9.098;2022-11-06T14:45:57;3.37;;;1.40;;
16892;SDS011;8563;52.242;9.098;2022-11-06T14:48:31;5.47;;;1.67;;
16892;SDS011;8563;52.242;9.098;2022-11-06T14:51:07;3.73;;;1.40;;
16892;SDS011;8563;52.242;9.098;2022-11-06T14:53:44;2.43;;;1.43;;
16892;SDS011;8563;52.242;9.098;2022-11-06T14:56:19;3.27;;;1.43;;
16892;SDS011;8563;52.242;9.098;2022-11-06T14:58:54;5.83;;;1.90;;
16892;SDS011;8563;52.242;9.098;2022-11-06T15:01:28;4.87;;;1.80;;
16892;SDS011;8563;52.242;9.098;2022-11-06T15:04:01;5.47;;;2.00;;
16892;SDS011;8563;52.242;9.098;2022-11-06T15:06:36;4.13;;;1.83;;
16892;SDS011;8563;52.242;9.098;2022-11-06T15:09:12;2.33;;;1.50;;
16892;SDS011;8563;52.242;9.098;2022-11-06T15:11:53;4.93;;;2.03;;
16892;SDS011;8563;52.242;9.098;2022-11-06T15:17:18;1.63;;;0.90;;
16892;SDS011;8563;52.242;9.098;2022-11-06T15:19:56;2.73;;;1.13;;
16892;SDS011;8563;52.242;9.098;2022-11-06T15:22:32;1.83;;;1.20;;
16892;SDS011;8563;52.242;9.098;2022-11-06T15:25:11;2.43;;;1.20;;
16892;SDS011;8563;52.242;9.098;2022-11-06T15:27:55;2.53;;;1.20;;
16892;SDS011;8563;52.242;9.098;2022-11-06T15:30:30;1.83;;;1.20;;
16892;SDS011;8563;52.242;9.098;2022-11-06T15:33:07;2.03;;;1.10;;
16892;SDS011;8563;52.242;9.098;2022-11-06T15:35:42;2.70;;;1.00;;
16892;SDS011;8563;52.242;9.098;2022-11-06T15:38:17;2.20;;;1.10;;
16892;SDS011;8563;52.242;9.098;2022-11-06T15:40:51;2.90;;;1.20;;
16892;SDS011;8563;52.242;9.098;2022-11-06T15:43:26;1.77;;;1.20;;
16892;SDS011;8563;52.242;9.098;2022-11-06T15:49:08;6.27;;;3.57;;
16892;SDS011;8563;52.242;9.098;2022-11-06T15:51:49;4.30;;;3.80;;
16892;SDS011;8563;52.242;9.098;2022-11-06T15:54:32;1.87;;;1.40;;
16892;SDS011;8563;52.242;9.098;2022-11-06T15:57:09;4.13;;;2.63;;
16892;SDS011;8563;52.242;9.098;2022-11-06T15:59:44;1.80;;;1.50;;
16892;SDS011;8563;52.242;9.098;2022-11-06T16:02:18;2.50;;;1.37;;
16892;SDS011;8563;52.242;9.098;2022-11-06T16:04:52;1.83;;;1.27;;
16892;SDS011;8563;52.242;9.098;2022-11-06T16:07:25;3.17;;;1.00;;
16892;SDS011;8563;52.242;9.098;2022-11-06T16:09:58;3.37;;;1.90;;
16892;SDS011;8563;52.242;9.098;2022-11-06T16:12:31;2.57;;;1.20;;
16892;SDS011;8563;52.242;9.098;2022-11-06T16:15:04;2.60;;;1.10;;